Time;durP1;ratioP1;P1;durP2;ratioP2;P2;SDS_P1;SDS_P2;PMS_P1;PMS_P2;Temp;Humidity;BMP_temperature;BMP_pressure;BME280_temperature;BME280_humidity;BME280_pressure;Samples;Min_cycle;Max_cycle;Signal;HPM_P1;HPM_P2
2021/12/06 00:00:35;;;;;;;11.07;6.78;;;2.20;99.90;;;;;;5094587;28;20020;-70
2021/12/06 00:03:06;;;;;;;14.32;6.78;;;2.20;99.90;;;;;;5094440;28;20027;-70
2021/12/06 00:05:32;;;;;;;19.88;6.60;;;2.20;99.90;;;;;;5093949;28;20032;-70
2021/12/06 00:07:58;;;;;;;14.43;6.82;;;2.20;99.90;;;;;;5092915;28;20074;-71
2021/12/06 00:10:24;;;;;;;19.40;6.10;;;2.20;99.90;;;;;;5094095;28;20036;-70
2021/12/06 00:12:50;;;;;;;12.82;6.72;;;2.10;99.90;;;;;;5094038;28;20028;-70
2021/12/06 00:15:16;;;;;;;9.38;5.68;;;2.10;99.90;;;;;;5092624;28;20068;-70
2021/12/06 00:17:41;;;;;;;13.02;6.53;;;2.10;99.90;;;;;;5094026;28;20024;-70
2021/12/06 00:20:11;;;;;;;10.77;5.65;;;2.10;99.90;;;;;;5093994;28;20024;-70
2021/12/06 00:22:37;;;;;;;11.27;5.55;;;2.00;99.90;;;;;;5093690;28;20020;-70
2021/12/06 00:25:04;;;;;;;13.88;6.30;;;2.00;99.90;;;;;;5092663;28;20028;-70
2021/12/06 00:27:30;;;;;;;11.50;6.13;;;1.90;99.90;;;;;;5093934;28;20031;-71
2021/12/06 00:29:56;;;;;;;13.75;6.18;;;1.90;99.90;;;;;;5091177;28;20456;-71
2021/12/06 00:32:22;;;;;;;10.45;5.32;;;1.90;99.90;;;;;;5073765;28;20024;-71
2021/12/06 00:34:48;;;;;;;8.30;4.75;;;1.90;99.90;;;;;;5055719;28;20035;-70
2021/12/06 00:39:50;;;;;;;7.53;4.38;;;1.80;99.90;;;;;;5073550;28;20461;-71
2021/12/06 00:42:17;;;;;;;11.82;5.65;;;1.80;99.90;;;;;;5056178;28;20032;-71
2021/12/06 00:44:43;;;;;;;8.65;4.72;;;1.70;99.90;;;;;;5055514;28;20028;-71
2021/12/06 00:47:09;;;;;;;12.52;5.43;;;1.70;99.90;;;;;;5055187;28;20029;-71
2021/12/06 00:49:35;;;;;;;9.13;5.35;;;1.60;99.90;;;;;;5073489;28;20522;-71
2021/12/06 00:52:00;;;;;;;7.82;4.95;;;1.60;99.90;;;;;;5055397;28;20058;-72
2021/12/06 00:54:26;;;;;;;13.25;5.72;;;1.50;99.90;;;;;;5073833;28;20029;-71
2021/12/06 00:56:52;;;;;;;10.90;5.25;;;1.50;99.90;;;;;;5073682;28;20029;-71
2021/12/06 00:59:18;;;;;;;9.05;4.65;;;1.50;99.90;;;;;;5073151;28;20024;-71
2021/12/06 01:01:44;;;;;;;9.63;4.85;;;1.40;99.90;;;;;;5073160;28;20021;-71
2021/12/06 01:04:09;;;;;;;12.27;5.88;;;1.40;99.90;;;;;;5073330;28;20025;-71
2021/12/06 01:06:35;;;;;;;9.75;5.20;;;1.40;99.90;;;;;;5073321;28;20036;-71
2021/12/06 01:09:01;;;;;;;9.60;5.10;;;1.30;99.90;;;;;;5075970;28;20103;-70
2021/12/06 01:11:26;;;;;;;10.43;5.18;;;1.30;99.90;;;;;;5059634;28;20460;-71
2021/12/06 01:13:52;;;;;;;8.35;4.35;;;1.30;99.90;;;;;;5059129;28;20032;-71
2021/12/06 01:16:19;;;;;;;11.48;4.47;;;1.30;99.90;;;;;;5076972;28;20032;-71
2021/12/06 01:18:44;;;;;;;6.85;4.43;;;1.20;99.90;;;;;;5059117;28;20032;-71
2021/12/06 01:29:43;;;;;;;9.32;5.35;;;1.30;99.90;;;;;;5057193;28;20120;-71
2021/12/06 01:32:26;;;;;;;6.13;4.43;;;1.30;99.90;;;;;;5076285;28;20040;-71
2021/12/06 01:40:22;;;;;;;10.52;5.20;;;1.30;99.90;;;;;;5076408;28;20438;-71
2021/12/06 01:42:48;;;;;;;7.80;4.72;;;1.30;99.90;;;;;;5058641;28;20031;-71
2021/12/06 01:45:14;;;;;;;7.82;5.05;;;1.40;99.90;;;;;;5058494;28;20032;-71
2021/12/06 01:47:41;;;;;;;10.10;4.72;;;1.40;99.90;;;;;;5058625;28;20036;-71
2021/12/06 01:50:09;;;;;;;8.13;5.03;;;1.30;99.90;;;;;;5076451;28;20029;-71
2021/12/06 01:52:51;;;;;;;9.00;4.35;;;1.30;99.90;;;;;;5058519;28;20051;-71
2021/12/06 01:55:21;;;;;;;10.98;5.85;;;1.30;99.90;;;;;;5076061;28;20025;-71
2021/12/06 01:57:47;;;;;;;13.35;5.22;;;1.30;99.90;;;;;;5076584;28;20021;-72
2021/12/06 02:00:18;;;;;;;7.68;4.50;;;1.20;99.90;;;;;;5058815;28;20101;-71
2021/12/06 02:02:44;;;;;;;8.43;3.83;;;1.20;99.90;;;;;;5076219;28;20036;-72
2021/12/06 02:05:10;;;;;;;10.57;5.60;;;1.20;99.90;;;;;;5076436;28;20033;-71
2021/12/06 02:07:36;;;;;;;8.25;4.88;;;1.30;99.90;;;;;;5057832;28;20028;-71
2021/12/06 02:10:04;;;;;;;11.98;5.47;;;1.20;99.90;;;;;;5075767;28;20074;-71
2021/12/06 02:12:31;;;;;;;9.35;4.00;;;1.20;99.90;;;;;;5058073;28;20064;-71
2021/12/06 02:17:28;;;;;;;11.75;5.00;;;1.20;99.90;;;;;;5075919;28;20024;-70
2021/12/06 02:20:01;;;;;;;11.30;4.40;;;1.20;99.90;;;;;;5076010;28;20024;-71
2021/12/06 02:22:31;;;;;;;8.20;4.95;;;1.20;99.90;;;;;;5058432;28;20051;-71
2021/12/06 02:24:57;;;;;;;9.70;5.10;;;1.20;99.90;;;;;;5076007;28;20050;-71
2021/12/06 02:27:26;;;;;;;11.75;4.93;;;1.30;99.90;;;;;;5057712;28;20524;-71
2021/12/06 02:29:53;;;;;;;11.40;5.93;;;1.30;99.90;;;;;;5058004;28;20032;-71
2021/12/06 02:32:20;;;;;;;16.08;6.22;;;1.30;99.90;;;;;;5057860;28;20028;-70
2021/12/06 02:34:50;;;;;;;12.30;6.18;;;1.40;99.90;;;;;;5057609;28;20025;-71
2021/12/06 02:37:21;;;;;;;13.50;6.32;;;1.40;99.90;;;;;;5075514;28;20021;-71
2021/12/06 02:39:47;;;;;;;12.25;5.90;;;1.50;99.90;;;;;;5057793;28;20381;-71
2021/12/06 02:42:15;;;;;;;9.82;5.55;;;1.50;99.90;;;;;;5075301;28;20020;-71
2021/12/06 02:44:41;;;;;;;10.18;5.93;;;1.60;99.90;;;;;;5057509;28;20024;-71
2021/12/06 02:47:08;;;;;;;12.75;6.47;;;1.60;99.90;;;;;;5075349;28;20511;-71
2021/12/06 02:49:34;;;;;;;13.73;6.68;;;1.60;99.90;;;;;;5057615;28;20064;-71
2021/12/06 02:52:01;;;;;;;14.40;6.60;;;1.60;99.90;;;;;;5074947;28;20024;-72
2021/12/06 02:54:27;;;;;;;12.20;6.15;;;1.60;99.90;;;;;;5075444;28;20050;-71
2021/12/06 02:57:18;;;;;;;9.82;5.95;;;1.60;99.90;;;;;;5075010;28;20040;-71
2021/12/06 02:59:41;;;;;;;10.80;6.28;;;1.60;99.90;;;;;;5074088;28;20068;-71
2021/12/06 03:02:12;;;;;;;14.50;6.60;;;1.60;99.90;;;;;;5075400;28;20024;-71
2021/12/06 03:04:39;;;;;;;12.70;5.78;;;1.60;99.90;;;;;;5074820;28;20388;-71
2021/12/06 03:07:07;;;;;;;13.70;5.70;;;1.60;99.90;;;;;;5075225;28;20055;-71
2021/12/06 03:09:37;;;;;;;14.05;6.90;;;1.60;99.90;;;;;;5075311;28;20032;-71
2021/12/06 03:12:07;;;;;;;19.52;8.00;;;1.60;99.90;;;;;;5057244;28;20025;-71
2021/12/06 03:14:42;;;;;;;16.25;7.50;;;1.60;99.90;;;;;;5074717;28;20023;-71
2021/12/06 03:17:12;;;;;;;15.95;6.72;;;1.60;99.90;;;;;;5075233;28;20031;-71
2021/12/06 03:19:38;;;;;;;26.10;8.70;;;1.70;99.90;;;;;;5074968;28;20032;-71
2021/12/06 03:22:06;;;;;;;19.58;9.00;;;1.70;99.90;;;;;;5074671;28;20460;-70
2021/12/06 03:24:32;;;;;;;20.60;8.75;;;1.70;99.90;;;;;;5074586;28;20025;-71
2021/12/06 03:26:58;;;;;;;18.33;7.88;;;1.70;99.90;;;;;;5074825;28;20025;-70
2021/12/06 03:29:27;;;;;;;15.02;7.80;;;1.70;99.90;;;;;;5074529;28;20033;-70
2021/12/06 03:31:52;;;;;;;19.42;8.43;;;1.70;99.90;;;;;;5074020;28;20206;-71
2021/12/06 03:34:19;;;;;;;18.45;7.50;;;1.70;99.90;;;;;;5074407;28;20125;-71
2021/12/06 03:36:46;;;;;;;19.23;8.38;;;1.70;99.90;;;;;;5056376;28;20044;-71
2021/12/06 03:39:42;;;;;;;21.35;8.68;;;1.70;99.90;;;;;;5074137;28;20074;-71
2021/12/06 03:42:10;;;;;;;17.33;8.18;;;1.70;99.90;;;;;;5074272;28;20029;-71
2021/12/06 03:44:36;;;;;;;28.27;9.80;;;1.70;99.90;;;;;;5056063;28;20106;-71
2021/12/06 03:47:24;;;;;;;17.73;8.63;;;1.70;99.90;;;;;;5074480;28;20035;-71
2021/12/06 03:49:50;;;;;;;18.58;9.00;;;1.70;99.90;;;;;;5056716;28;20436;-71
2021/12/06 03:52:16;;;;;;;19.20;8.65;;;1.70;99.90;;;;;;5074141;28;20029;-71
2021/12/06 03:54:43;;;;;;;22.42;8.90;;;1.80;99.90;;;;;;5074012;28;20358;-71
2021/12/06 03:57:08;;;;;;;26.55;8.52;;;1.80;99.90;;;;;;5074140;28;20452;-71
2021/12/06 03:59:34;;;;;;;19.33;8.57;;;1.80;99.90;;;;;;5074014;28;20167;-71
2021/12/06 04:02:00;;;;;;;20.85;9.13;;;1.80;99.90;;;;;;5055776;28;20025;-71
2021/12/06 04:04:27;;;;;;;17.08;8.32;;;1.80;99.90;;;;;;5073980;28;20052;-71
2021/12/06 04:06:53;;;;;;;18.42;8.35;;;1.80;99.90;;;;;;5073876;28;20027;-71
2021/12/06 04:09:19;;;;;;;21.30;8.68;;;1.90;99.90;;;;;;5073855;28;20025;-71
2021/12/06 04:11:45;;;;;;;19.50;8.27;;;1.90;99.90;;;;;;5056435;28;20043;-70
2021/12/06 04:14:12;;;;;;;19.08;9.15;;;1.90;99.90;;;;;;5073819;28;20024;-70
2021/12/06 04:16:38;;;;;;;19.05;8.32;;;1.90;99.90;;;;;;5055784;28;20392;-70
2021/12/06 04:19:06;;;;;;;24.00;9.32;;;1.90;99.90;;;;;;5073797;28;20456;-70
2021/12/06 04:21:32;;;;;;;22.50;9.65;;;1.90;99.90;;;;;;5073730;28;20024;-70
2021/12/06 04:23:58;;;;;;;21.00;9.23;;;1.80;99.90;;;;;;5073500;28;20107;-70
2021/12/06 04:26:24;;;;;;;26.17;9.95;;;1.90;99.90;;;;;;5073788;28;20487;-70
2021/12/06 04:28:58;;;;;;;20.10;8.55;;;1.90;99.90;;;;;;5073373;28;20380;-70
2021/12/06 04:31:25;;;;;;;22.10;9.32;;;1.80;99.90;;;;;;5073565;28;20051;-70
2021/12/06 04:33:51;;;;;;;25.10;9.77;;;1.80;99.90;;;;;;5055665;28;20024;-70
2021/12/06 04:36:16;;;;;;;19.15;8.20;;;1.80;99.90;;;;;;5073546;28;20091;-70
2021/12/06 04:38:42;;;;;;;21.45;9.43;;;1.80;99.90;;;;;;5073858;28;20106;-70
2021/12/06 04:41:07;;;;;;;18.75;9.68;;;1.80;99.90;;;;;;5073558;28;20082;-70
2021/12/06 04:43:33;;;;;;;21.10;8.43;;;1.80;99.90;;;;;;5075659;28;20029;-70
2021/12/06 04:45:59;;;;;;;20.20;9.32;;;1.80;99.90;;;;;;5077701;28;20064;-71
2021/12/06 04:48:25;;;;;;;28.25;8.70;;;1.80;99.90;;;;;;5077603;28;20032;-71
2021/12/06 04:50:50;;;;;;;25.55;9.82;;;1.80;99.90;;;;;;5077741;28;20032;-71
2021/12/06 04:53:23;;;;;;;22.77;9.77;;;1.80;99.90;;;;;;5059580;28;20034;-71
2021/12/06 04:56:07;;;;;;;24.17;9.63;;;1.80;99.90;;;;;;5059416;28;20037;-71
2021/12/06 04:58:43;;;;;;;18.55;8.80;;;1.80;99.90;;;;;;5077137;28;20032;-71
2021/12/06 05:01:13;;;;;;;20.33;9.48;;;1.80;99.90;;;;;;5059723;28;20400;-71
2021/12/06 05:03:40;;;;;;;19.67;9.68;;;1.80;99.90;;;;;;5059320;28;20029;-70
2021/12/06 05:06:20;;;;;;;22.50;9.07;;;1.80;99.90;;;;;;5077466;28;20028;-71
2021/12/06 05:08:51;;;;;;;20.83;9.63;;;1.80;99.90;;;;;;5076951;28;20423;-71
2021/12/06 05:11:18;;;;;;;16.20;8.27;;;1.80;99.90;;;;;;5076918;28;20483;-71
2021/12/06 05:13:47;;;;;;;17.27;8.55;;;1.90;99.90;;;;;;5077069;28;20025;-71
2021/12/06 05:16:33;;;;;;;;;;;1.90;99.90;;;;;;5059344;28;20032;-70
2021/12/06 05:18:59;;;;;;;19.73;8.43;;;1.90;99.90;;;;;;5059216;28;19958;-70
2021/12/06 05:21:25;;;;;;;19.40;9.35;;;1.90;99.90;;;;;;5076973;28;20020;-70
2021/12/06 05:23:51;;;;;;;25.63;9.45;;;1.90;99.90;;;;;;5058872;28;20082;-71
2021/12/06 05:26:18;;;;;;;24.65;8.82;;;2.00;99.90;;;;;;5077138;28;20115;-70
2021/12/06 05:28:45;;;;;;;19.98;9.18;;;2.00;99.90;;;;;;5076843;28;20029;-70
2021/12/06 05:31:17;;;;;;;16.52;8.23;;;2.00;99.90;;;;;;5076907;28;20036;-70
2021/12/06 05:33:46;;;;;;;19.52;9.05;;;2.00;99.90;;;;;;5076771;28;20099;-70
2021/12/06 05:36:13;;;;;;;17.55;8.25;;;2.00;99.90;;;;;;5058711;28;20051;-68
2021/12/06 05:38:39;;;;;;;18.27;8.75;;;2.00;99.90;;;;;;5076588;28;20208;-69
2021/12/06 05:41:06;;;;;;;21.48;9.30;;;2.00;99.90;;;;;;5076305;28;20039;-70
2021/12/06 05:43:32;;;;;;;24.23;9.93;;;2.00;99.90;;;;;;5076526;28;20029;-68
2021/12/06 05:45:58;;;;;;;19.65;8.88;;;2.00;99.90;;;;;;5076251;28;20032;-69
2021/12/06 05:48:24;;;;;;;21.92;9.18;;;2.00;99.90;;;;;;5058714;28;20052;-69
2021/12/06 05:50:50;;;;;;;19.50;8.73;;;2.00;99.90;;;;;;5076105;28;20070;-70
2021/12/06 05:53:17;;;;;;;19.08;8.60;;;2.00;99.90;;;;;;5075785;28;20028;-69
2021/12/06 05:56:03;;;;;;;25.90;10.07;;;2.00;99.90;;;;;;5076236;28;20082;-70
2021/12/06 05:58:47;;;;;;;21.08;9.38;;;2.10;99.90;;;;;;5076613;28;20023;-70
2021/12/06 06:01:14;;;;;;;21.02;10.13;;;2.10;99.90;;;;;;5076332;28;20060;-70
2021/12/06 06:03:39;;;;;;;18.05;9.98;;;2.10;99.90;;;;;;5058186;28;20036;-71
2021/12/06 06:06:05;;;;;;;19.65;9.15;;;2.10;99.90;;;;;;5058174;28;20523;-70
2021/12/06 06:08:31;;;;;;;22.60;10.43;;;2.10;99.90;;;;;;5076169;28;20047;-70
2021/12/06 06:10:57;;;;;;;21.02;9.60;;;2.10;99.90;;;;;;5075906;28;20027;-70
2021/12/06 06:13:23;;;;;;;19.70;9.90;;;2.10;99.90;;;;;;5076073;28;20024;-70
2021/12/06 06:15:51;;;;;;;19.85;9.98;;;2.20;99.90;;;;;;5075767;28;20040;-69
2021/12/06 06:18:20;;;;;;;19.67;10.93;;;2.20;99.90;;;;;;5075559;28;20052;-70
2021/12/06 06:20:52;;;;;;;23.73;11.32;;;2.20;99.90;;;;;;5057779;28;20398;-69
2021/12/06 06:23:18;;;;;;;24.85;10.13;;;2.10;99.90;;;;;;5058037;28;20028;-69
2021/12/06 06:25:45;;;;;;;24.23;11.43;;;2.20;99.90;;;;;;5075477;28;20032;-69
2021/12/06 06:28:11;;;;;;;22.80;10.13;;;2.20;99.90;;;;;;5075674;28;20457;-69
2021/12/06 06:30:37;;;;;;;21.15;10.50;;;2.20;99.90;;;;;;5075480;28;20053;-69
2021/12/06 06:33:04;;;;;;;22.52;10.55;;;2.20;99.90;;;;;;5075572;28;20460;-69
2021/12/06 06:35:30;;;;;;;22.85;11.48;;;2.20;99.90;;;;;;5075313;28;20047;-69
2021/12/06 06:37:56;;;;;;;22.95;10.50;;;2.20;99.90;;;;;;5057557;28;20028;-69
2021/12/06 06:40:22;;;;;;;20.65;10.88;;;2.30;99.90;;;;;;5057272;28;20388;-69
2021/12/06 06:42:48;;;;;;;30.83;10.57;;;2.30;99.90;;;;;;5074937;28;20024;-69
2021/12/06 06:45:17;;;;;;;22.48;10.40;;;2.30;99.90;;;;;;5057039;28;20028;-69
2021/12/06 06:47:43;;;;;;;22.08;11.00;;;2.30;99.90;;;;;;5057080;28;20036;-69
2021/12/06 06:50:10;;;;;;;24.98;9.73;;;2.30;99.90;;;;;;5075236;28;20029;-69
2021/12/06 06:52:35;;;;;;;23.08;10.82;;;2.30;99.90;;;;;;5057181;28;20029;-69
2021/12/06 06:55:04;;;;;;;21.73;8.90;;;2.30;99.90;;;;;;5075198;28;20032;-69
2021/12/06 06:57:30;;;;;;;20.83;10.23;;;2.30;99.90;;;;;;5075194;28;20450;-69
2021/12/06 06:59:56;;;;;;;24.17;11.23;;;2.40;99.90;;;;;;5074756;28;20025;-69
2021/12/06 07:02:21;;;;;;;21.45;10.55;;;2.40;99.90;;;;;;5074931;28;20032;-69
2021/12/06 07:04:48;;;;;;;21.95;11.05;;;2.40;99.90;;;;;;5074553;28;20048;-69
2021/12/06 07:07:14;;;;;;;17.42;8.95;;;2.40;99.90;;;;;;5074249;28;20020;-69
2021/12/06 07:09:42;;;;;;;21.73;10.00;;;2.40;99.90;;;;;;5057171;28;20040;-69
2021/12/06 07:12:14;;;;;;;21.05;9.25;;;2.40;99.90;;;;;;5056894;28;20035;-69
2021/12/06 07:14:40;;;;;;;20.73;10.80;;;2.40;99.90;;;;;;5075056;28;20159;-69
2021/12/06 07:17:06;;;;;;;21.63;10.65;;;2.40;99.90;;;;;;5056785;28;20115;-69
2021/12/06 07:19:31;;;;;;;22.17;10.27;;;2.50;99.90;;;;;;5056928;28;20031;-69
2021/12/06 07:21:58;;;;;;;19.90;9.90;;;2.50;99.90;;;;;;5074212;28;20024;-69
2021/12/06 07:24:24;;;;;;;20.13;9.85;;;2.50;99.90;;;;;;5074307;28;20027;-69
2021/12/06 07:26:50;;;;;;;22.23;10.95;;;2.50;99.90;;;;;;5074455;28;20068;-69
2021/12/06 07:29:15;;;;;;;23.10;9.88;;;2.50;99.90;;;;;;5074787;28;20125;-69
2021/12/06 07:31:41;;;;;;;17.95;9.10;;;2.50;99.90;;;;;;5075045;28;20131;-69
2021/12/06 07:34:07;;;;;;;20.70;9.77;;;2.50;99.90;;;;;;5074363;28;20368;-69
2021/12/06 07:36:32;;;;;;;27.70;11.65;;;2.60;99.90;;;;;;5056379;28;20411;-69
2021/12/06 07:38:58;;;;;;;27.60;10.88;;;2.50;99.90;;;;;;5074292;28;20099;-69
2021/12/06 07:41:28;;;;;;;22.35;10.43;;;2.60;99.90;;;;;;5074240;28;20035;-69
2021/12/06 07:43:54;;;;;;;30.15;11.80;;;2.60;99.90;;;;;;5074242;28;20063;-69
2021/12/06 07:46:20;;;;;;;21.88;10.48;;;2.60;99.90;;;;;;5074146;28;20111;-69
2021/12/06 07:48:52;;;;;;;24.40;11.65;;;2.60;99.90;;;;;;5074448;28;20056;-69
2021/12/06 07:51:24;;;;;;;25.27;10.57;;;2.60;99.90;;;;;;5074226;28;20021;-68
2021/12/06 07:53:51;;;;;;;26.33;10.93;;;2.60;99.90;;;;;;5074362;28;20032;-69
2021/12/06 07:56:18;;;;;;;26.58;11.07;;;2.60;99.90;;;;;;5055952;28;20070;-69
2021/12/06 07:58:44;;;;;;;24.65;11.98;;;2.60;99.90;;;;;;5056097;28;20354;-69
2021/12/06 08:01:11;;;;;;;26.80;11.90;;;2.50;99.90;;;;;;5073962;28;20040;-69
2021/12/06 08:03:38;;;;;;;27.80;11.48;;;2.60;99.90;;;;;;5073682;28;20036;-69
2021/12/06 08:06:04;;;;;;;22.98;10.80;;;2.60;99.90;;;;;;5074297;28;20032;-68
2021/12/06 08:08:32;;;;;;;26.33;11.30;;;2.60;99.90;;;;;;5055908;28;20063;-68
2021/12/06 08:11:06;;;;;;;25.65;10.50;;;2.60;99.90;;;;;;5073775;28;20025;-68
2021/12/06 08:13:34;;;;;;;29.50;11.32;;;2.60;99.90;;;;;;5073861;28;20029;-68
2021/12/06 08:16:11;;;;;;;26.20;10.73;;;2.70;99.90;;;;;;5055656;28;20441;-69
2021/12/06 08:18:37;;;;;;;22.05;10.48;;;2.60;99.90;;;;;;5056539;28;20032;-68
2021/12/06 08:21:04;;;;;;;30.13;12.27;;;2.70;99.90;;;;;;5073741;28;20025;-68
2021/12/06 08:23:31;;;;;;;22.92;11.73;;;2.70;99.90;;;;;;5055576;28;20484;-68
2021/12/06 08:25:57;;;;;;;21.85;10.52;;;2.70;99.90;;;;;;5055764;28;20024;-69
2021/12/06 08:28:24;;;;;;;23.52;10.98;;;2.70;99.90;;;;;;5073734;28;20055;-69
2021/12/06 08:30:51;;;;;;;25.40;11.38;;;2.70;99.90;;;;;;5071458;28;20044;-68
2021/12/06 08:33:18;;;;;;;21.60;10.35;;;2.80;99.90;;;;;;5092621;28;20034;-68
2021/12/06 08:35:46;;;;;;;22.35;10.90;;;2.90;99.90;;;;;;5092178;28;20042;-68
2021/12/06 08:38:13;;;;;;;27.97;11.23;;;2.90;99.90;;;;;;5093843;28;20490;-68
2021/12/06 08:40:42;;;;;;;18.27;9.73;;;3.00;99.90;;;;;;5092597;28;20636;-68
2021/12/06 08:43:08;;;;;;;20.88;9.20;;;3.00;99.90;;;;;;5093514;28;20081;-69
2021/12/06 08:45:35;;;;;;;21.33;10.07;;;3.10;99.90;;;;;;5093710;28;20036;-68
2021/12/06 08:48:01;;;;;;;21.95;10.90;;;3.10;99.90;;;;;;5093946;28;20031;-68
2021/12/06 08:50:28;;;;;;;18.95;9.38;;;3.10;99.90;;;;;;5092637;28;20357;-68
2021/12/06 08:52:55;;;;;;;20.63;10.15;;;3.20;99.90;;;;;;5092748;28;20032;-68
2021/12/06 08:55:22;;;;;;;24.42;9.75;;;3.20;99.90;;;;;;5093477;28;20033;-68
2021/12/06 08:57:50;;;;;;;20.23;9.93;;;3.30;99.90;;;;;;5093662;28;20110;-69
2021/12/06 09:00:24;;;;;;;18.77;8.32;;;3.20;99.90;;;;;;5093593;28;20359;-68
2021/12/06 09:02:50;;;;;;;19.20;9.43;;;3.20;99.90;;;;;;5093559;28;20043;-68
2021/12/06 09:05:16;;;;;;;18.17;8.50;;;3.20;99.90;;;;;;5091916;28;20028;-68
2021/12/06 09:07:42;;;;;;;24.48;10.82;;;3.20;99.90;;;;;;5092321;28;20025;-68
2021/12/06 09:10:10;;;;;;;23.08;10.05;;;3.20;99.90;;;;;;5092279;28;20026;-68
2021/12/06 09:12:37;;;;;;;21.25;9.93;;;3.20;99.90;;;;;;5092312;28;20107;-68
2021/12/06 09:15:08;;;;;;;17.85;8.35;;;3.30;99.90;;;;;;5092070;28;20498;-68
2021/12/06 09:17:34;;;;;;;25.25;9.50;;;3.40;99.90;;;;;;5093306;28;20024;-68
2021/12/06 09:20:00;;;;;;;18.33;8.90;;;3.50;99.90;;;;;;5092122;28;20119;-69
2021/12/06 09:22:26;;;;;;;18.73;8.50;;;3.60;99.90;;;;;;5093052;28;20539;-69
2021/12/06 09:24:52;;;;;;;19.05;9.23;;;3.70;99.90;;;;;;5093668;28;20103;-69
2021/12/06 09:27:18;;;;;;;17.75;8.88;;;3.80;99.90;;;;;;5092231;28;20027;-69
2021/12/06 09:29:45;;;;;;;17.80;9.40;;;3.90;99.90;;;;;;5093890;28;20031;-69
2021/12/06 09:32:13;;;;;;;17.23;8.45;;;4.00;99.90;;;;;;5076610;28;20388;-69
2021/12/06 09:34:42;;;;;;;18.38;8.43;;;4.00;99.90;;;;;;5058787;28;20472;-68
2021/12/06 09:37:08;;;;;;;17.00;8.00;;;4.00;99.90;;;;;;5076878;28;20098;-68
2021/12/06 09:39:34;;;;;;;17.98;7.82;;;4.00;99.90;;;;;;5076883;28;20098;-68
2021/12/06 09:42:01;;;;;;;18.50;8.93;;;4.00;99.90;;;;;;5059133;28;20372;-68
2021/12/06 09:44:27;;;;;;;16.92;8.32;;;4.00;99.90;;;;;;5076798;28;20024;-68
2021/12/06 09:46:53;;;;;;;12.80;7.75;;;4.00;99.90;;;;;;5058544;28;20594;-68
2021/12/06 09:49:22;;;;;;;16.08;7.78;;;3.80;99.90;;;;;;5076463;28;20047;-68
2021/12/06 09:51:51;;;;;;;;;;;3.70;99.90;;;;;;5076988;28;20345;-68
2021/12/06 09:54:22;;;;;;;18.67;7.88;;;3.70;99.90;;;;;;5076472;28;19911;-68
2021/12/06 09:56:49;;;;;;;18.70;8.65;;;3.70;99.90;;;;;;5076027;28;20036;-68
2021/12/06 09:59:18;;;;;;;18.92;8.93;;;3.60;99.90;;;;;;5076204;28;20094;-68
2021/12/06 10:01:50;;;;;;;16.98;7.85;;;3.50;99.90;;;;;;5076275;28;20094;-67
2021/12/06 10:04:18;;;;;;;16.35;7.55;;;3.50;99.90;;;;;;5058432;28;20032;-67
2021/12/06 10:06:46;;;;;;;15.82;7.65;;;3.50;99.90;;;;;;5058164;28;20465;-68
2021/12/06 10:09:13;;;;;;;13.95;7.88;;;3.40;99.90;;;;;;5075834;28;20358;-67
2021/12/06 10:11:40;;;;;;;17.88;8.75;;;3.50;99.90;;;;;;5058108;28;20058;-68
2021/12/06 10:14:07;;;;;;;15.05;8.10;;;3.50;99.90;;;;;;5076138;28;20029;-68
2021/12/06 10:16:33;;;;;;;22.83;10.05;;;3.50;99.90;;;;;;5075867;28;20375;-68
2021/12/06 10:18:59;;;;;;;18.13;8.45;;;3.40;99.90;;;;;;5075933;28;20499;-68
2021/12/06 10:21:27;;;;;;;18.92;8.45;;;3.40;99.90;;;;;;5076063;28;20396;-67
2021/12/06 10:23:54;;;;;;;19.73;8.63;;;3.40;99.90;;;;;;5075823;28;20047;-67
2021/12/06 10:26:27;;;;;;;16.95;7.80;;;3.40;99.90;;;;;;5057768;28;20392;-67
2021/12/06 10:28:59;;;;;;;25.13;8.65;;;3.40;99.90;;;;;;5075968;28;20025;-68
2021/12/06 10:31:26;;;;;;;20.38;8.80;;;3.40;99.90;;;;;;5083273;28;20054;-68
2021/12/06 10:33:54;;;;;;;17.55;8.18;;;3.40;99.90;;;;;;5096558;28;20058;-67
2021/12/06 10:36:22;;;;;;;16.00;8.13;;;3.40;99.90;;;;;;5095697;28;20032;-67
2021/12/06 10:38:53;;;;;;;22.13;8.32;;;3.50;99.90;;;;;;5095768;28;20103;-67
2021/12/06 10:41:29;;;;;;;14.75;8.30;;;3.50;99.90;;;;;;5094940;28;20380;-67
2021/12/06 10:44:04;;;;;;;15.98;7.95;;;3.40;99.90;;;;;;5094497;28;20054;-67
2021/12/06 10:46:31;;;;;;;19.48;8.85;;;3.40;99.90;;;;;;5094729;28;20383;-67
2021/12/06 10:49:00;;;;;;;17.98;8.57;;;3.40;99.90;;;;;;5095624;28;20021;-67
2021/12/06 10:51:27;;;;;;;13.85;7.55;;;3.40;99.90;;;;;;5095781;28;20036;-68
2021/12/06 10:54:04;;;;;;;17.25;8.52;;;3.40;99.90;;;;;;5095971;28;20375;-68
2021/12/06 10:56:41;;;;;;;19.02;8.10;;;3.40;99.90;;;;;;5095531;28;20038;-68
2021/12/06 10:59:24;;;;;;;20.77;8.88;;;3.40;99.90;;;;;;5095442;28;20099;-68
2021/12/06 11:01:53;;;;;;;16.73;8.75;;;3.50;99.90;;;;;;5095399;28;20059;-67
2021/12/06 11:04:20;;;;;;;;;;;3.50;99.90;;;;;;5094704;28;20410;-68
2021/12/06 11:06:49;;;;;;;17.65;8.55;;;3.50;99.90;;;;;;5095568;28;19957;-68
2021/12/06 11:09:17;;;;;;;;;;;3.50;99.90;;;;;;5094373;28;20024;-68
2021/12/06 11:11:46;;;;;;;18.23;8.57;;;3.50;99.90;;;;;;5094434;28;19904;-68
2021/12/06 11:14:13;;;;;;;15.77;7.50;;;3.50;99.90;;;;;;5095121;28;20046;-68
2021/12/06 11:16:45;;;;;;;19.65;8.90;;;3.60;99.90;;;;;;5093284;28;20094;-68
2021/12/06 11:19:14;;;;;;;19.33;8.98;;;3.60;99.90;;;;;;5093783;28;20025;-68
2021/12/06 11:21:46;;;;;;;24.13;9.73;;;3.60;99.90;;;;;;5093369;28;20028;-68
2021/12/06 11:24:11;;;;;;;19.48;8.73;;;3.60;99.90;;;;;;5095077;28;20372;-68
2021/12/06 11:26:48;;;;;;;19.50;9.80;;;3.60;99.90;;;;;;5094826;28;20024;-69
2021/12/06 11:29:16;;;;;;;15.55;8.25;;;3.60;99.90;;;;;;5095007;28;20024;-67
2021/12/06 11:31:50;;;;;;;18.77;7.88;;;3.60;99.90;;;;;;5077716;28;20083;-67
2021/12/06 11:34:16;;;;;;;15.38;7.20;;;3.70;99.90;;;;;;5057135;28;20024;-67
2021/12/06 11:36:43;;;;;;;18.83;8.93;;;3.70;99.90;;;;;;5074280;28;20098;-67
2021/12/06 11:39:14;;;;;;;14.93;7.38;;;3.70;99.90;;;;;;5056636;28;20415;-67
2021/12/06 11:41:49;;;;;;;14.95;7.57;;;3.80;99.90;;;;;;5074405;28;20051;-67
2021/12/06 11:44:19;;;;;;;16.17;8.55;;;3.00;99.90;;;;;;5074193;28;20020;-67
2021/12/06 11:46:46;;;;;;;14.65;7.80;;;3.90;99.90;;;;;;5056150;28;20078;-67
2021/12/06 11:49:21;;;;;;;13.10;6.75;;;3.90;99.90;;;;;;5074166;28;20027;-67
2021/12/06 11:51:50;;;;;;;13.50;7.05;;;4.00;99.90;;;;;;5055938;28;20029;-67
2021/12/06 11:54:15;;;;;;;16.50;7.22;;;4.00;99.90;;;;;;5074116;28;20031;-67
2021/12/06 11:56:48;;;;;;;15.30;6.75;;;4.00;99.90;;;;;;5073958;28;20040;-67
2021/12/06 11:59:16;;;;;;;15.82;7.28;;;4.00;99.90;;;;;;5073831;28;20057;-67
2021/12/06 12:01:53;;;;;;;16.42;6.65;;;4.00;99.90;;;;;;5055608;28;20020;-67
2021/12/06 12:04:25;;;;;;;15.25;6.90;;;4.00;99.90;;;;;;5056157;28;20031;-67
2021/12/06 12:07:02;;;;;;;16.20;8.02;;;4.00;99.90;;;;;;5073959;28;20074;-67
2021/12/06 12:09:31;;;;;;;17.00;7.28;;;4.00;99.90;;;;;;5056084;28;20029;-67
2021/12/06 12:12:19;;;;;;;13.63;7.15;;;4.00;99.90;;;;;;5056015;28;20444;-67
2021/12/06 12:14:58;;;;;;;15.88;7.63;;;4.00;99.90;;;;;;5056143;28;20477;-67
2021/12/06 12:17:33;;;;;;;17.58;7.65;;;4.00;99.90;;;;;;5055531;28;20036;-67
2021/12/06 12:20:04;;;;;;;18.70;7.13;;;4.10;99.90;;;;;;5055855;28;20035;-68
2021/12/06 12:22:30;;;;;;;16.25;7.93;;;4.20;99.90;;;;;;5073794;28;20020;-68
2021/12/06 12:25:04;;;;;;;15.07;6.55;;;4.20;99.90;;;;;;5073553;28;20032;-67
2021/12/06 12:30:32;;;;;;;14.35;6.82;;;4.30;99.90;;;;;;5028934;28;20053;-68
2021/12/06 12:33:00;;;;;;;15.98;7.15;;;4.40;99.90;;;;;;5073698;28;20070;-67
2021/12/06 12:35:30;;;;;;;16.13;7.78;;;4.30;99.90;;;;;;5055589;28;20038;-67
2021/12/06 12:38:18;;;;;;;13.85;7.05;;;4.30;99.90;;;;;;5055314;28;20081;-67
2021/12/06 12:40:48;;;;;;;14.50;5.93;;;4.30;99.90;;;;;;5055473;28;20048;-67
2021/12/06 12:43:18;;;;;;;13.35;7.10;;;4.30;99.90;;;;;;5055742;28;20032;-67
2021/12/06 12:45:56;;;;;;;13.88;7.05;;;4.20;99.90;;;;;;5055981;28;20035;-67
2021/12/06 12:48:26;;;;;;;16.05;7.03;;;4.20;99.90;;;;;;5073715;28;20028;-68
2021/12/06 12:51:09;;;;;;;17.25;7.18;;;4.20;99.90;;;;;;5073608;28;20021;-67
2021/12/06 12:53:55;;;;;;;15.02;7.45;;;4.10;99.90;;;;;;5055512;28;20036;-67
2021/12/06 12:59:22;;;;;;;14.85;6.95;;;4.10;99.90;;;;;;5073193;28;20088;-67
2021/12/06 13:02:10;;;;;;;16.33;6.95;;;4.00;99.90;;;;;;5073376;28;20036;-67
2021/12/06 13:04:57;;;;;;;20.52;7.07;;;4.00;99.90;;;;;;5075540;28;20108;-67
2021/12/06 13:07:23;;;;;;;14.23;7.25;;;4.00;99.90;;;;;;5059475;28;20074;-67
2021/12/06 13:09:49;;;;;;;19.38;8.02;;;4.00;99.90;;;;;;5077487;28;20103;-67
2021/12/06 13:12:16;;;;;;;13.05;6.93;;;4.10;99.90;;;;;;5059276;28;20120;-67
2021/12/06 13:14:54;;;;;;;12.18;6.82;;;4.10;99.90;;;;;;5077096;28;20021;-67
2021/12/06 13:17:27;;;;;;;12.07;6.22;;;4.10;99.90;;;;;;5059160;28;20047;-67
2021/12/06 13:20:08;;;;;;;16.45;7.00;;;4.10;99.90;;;;;;5077318;28;20146;-67